createdAt,value
2022-08-06T00:00:07.917Z,11.40
2022-08-06T00:03:01.391Z,10.90
2022-08-06T00:05:34.979Z,11.50
2022-08-06T00:08:04.472Z,10.40
2022-08-06T00:10:35.928Z,11.10
2022-08-06T00:13:05.531Z,11.10
2022-08-06T00:16:09.697Z,11.20
2022-08-06T00:18:31.594Z,11.00
2022-08-06T00:21:00.550Z,11.60
2022-08-06T00:23:52.276Z,10.80
2022-08-06T00:26:18.267Z,12.10
2022-08-06T00:28:47.000Z,11.40
2022-08-06T00:31:16.347Z,11.20
2022-08-06T00:33:56.740Z,11.50
2022-08-06T00:36:30.389Z,12.10
2022-08-06T00:39:08.959Z,10.50
2022-08-06T00:41:42.454Z,11.80
2022-08-06T00:44:30.342Z,11.50
2022-08-06T00:47:00.938Z,11.60
2022-08-06T00:49:49.188Z,11.80
2022-08-06T00:52:19.496Z,11.00
2022-08-06T00:54:50.061Z,11.80
2022-08-06T00:57:22.570Z,12.10
2022-08-06T00:59:51.799Z,12.50
2022-08-06T01:02:23.577Z,12.30
2022-08-06T01:05:07.004Z,12.50
2022-08-06T01:07:51.203Z,11.70
2022-08-06T01:10:31.046Z,11.00
2022-08-06T01:13:23.383Z,11.70
2022-08-06T01:16:09.554Z,12.50
2022-08-06T01:18:59.038Z,11.70
2022-08-06T01:22:31.185Z,12.70
2022-08-06T01:25:23.420Z,11.70
2022-08-06T01:28:06.977Z,12.10
2022-08-06T01:30:44.364Z,12.30
2022-08-06T01:33:30.467Z,11.60
2022-08-06T01:36:07.103Z,12.30
2022-08-06T01:38:50.647Z,11.60
2022-08-06T01:41:54.818Z,12.60
2022-08-06T01:44:36.240Z,12.30
2022-08-06T01:47:16.383Z,11.80
2022-08-06T01:50:00.666Z,12.30
2022-08-06T01:52:59.491Z,12.20
2022-08-06T01:55:56.300Z,11.50
2022-08-06T01:58:33.017Z,12.20
2022-08-06T02:01:09.989Z,12.20
2022-08-06T02:03:50.364Z,13.10
2022-08-06T02:06:41.898Z,11.70
2022-08-06T02:09:22.824Z,12.20
2022-08-06T02:12:06.777Z,11.60
2022-08-06T02:14:48.386Z,13.10
2022-08-06T02:17:48.644Z,12.30
2022-08-06T02:20:19.253Z,11.70
2022-08-06T02:23:04.142Z,12.90
2022-08-06T02:25:36.487Z,12.40
2022-08-06T02:28:06.604Z,12.80
2022-08-06T02:30:43.179Z,13.30
2022-08-06T02:33:18.150Z,14.10
2022-08-06T02:36:02.683Z,13.60
2022-08-06T02:38:52.271Z,14.00
2022-08-06T02:42:05.193Z,12.60
2022-08-06T02:45:14.310Z,13.50
2022-08-06T02:48:03.528Z,14.00
2022-08-06T02:50:53.469Z,14.00
2022-08-06T02:54:02.746Z,13.70
2022-08-06T02:56:29.290Z,13.50
2022-08-06T02:59:00.464Z,14.10
2022-08-06T03:01:39.294Z,13.80
2022-08-06T03:04:15.552Z,13.70
2022-08-06T03:06:48.061Z,12.30
2022-08-06T03:09:19.723Z,14.70
2022-08-06T03:11:49.714Z,13.80
2022-08-06T03:15:04.372Z,13.90
2022-08-06T03:17:12.549Z,12.70
2022-08-06T03:19:55.927Z,14.40
2022-08-06T03:22:34.735Z,14.20
2022-08-06T03:25:08.747Z,15.40
2022-08-06T03:27:43.701Z,13.30
2022-08-06T03:30:31.444Z,14.70
2022-08-06T03:33:28.746Z,14.30
2022-08-06T03:36:02.396Z,14.50
2022-08-06T03:38:41.008Z,15.10
2022-08-06T03:41:11.917Z,14.80
2022-08-06T03:44:02.961Z,14.60
2022-08-06T03:46:47.883Z,14.10
2022-08-06T03:49:40.516Z,13.70
2022-08-06T03:52:17.757Z,12.90
2022-08-06T03:54:56.673Z,13.70
2022-08-06T03:57:40.543Z,12.90
2022-08-06T04:00:28.054Z,13.20
2022-08-06T04:03:02.911Z,13.00
2022-08-06T04:05:34.517Z,12.70
2022-08-06T04:08:09.263Z,12.70
2022-08-06T04:10:56.722Z,12.90
2022-08-06T04:14:03.878Z,14.20
2022-08-06T04:16:32.917Z,12.60
2022-08-06T04:19:09.300Z,12.90
2022-08-06T04:22:59.377Z,13.50
2022-08-06T04:24:32.404Z,12.80
2022-08-06T04:27:09.725Z,12.40
2022-08-06T04:29:57.347Z,12.10
2022-08-06T04:32:32.034Z,12.40
2022-08-06T04:36:07.838Z,12.80
2022-08-06T04:38:00.957Z,13.30
2022-08-06T04:40:35.689Z,12.20
2022-08-06T04:43:19.528Z,12.90
2022-08-06T04:46:18.105Z,12.30
2022-08-06T04:48:47.037Z,12.50
2022-08-06T04:52:34.562Z,12.00
2022-08-06T04:54:07.284Z,12.10
2022-08-06T04:56:42.434Z,12.00
2022-08-06T04:59:19.430Z,12.20
2022-08-06T05:01:56.685Z,11.80
2022-08-06T05:04:34.545Z,12.50
2022-08-06T05:07:51.952Z,12.00
2022-08-06T05:10:31.485Z,12.30
2022-08-06T05:13:02.032Z,11.60
2022-08-06T05:15:50.974Z,12.20
2022-08-06T05:19:20.996Z,12.00
2022-08-06T05:22:06.040Z,12.10
2022-08-06T05:24:38.812Z,11.60
2022-08-06T05:27:17.937Z,11.50
2022-08-06T05:29:52.403Z,11.70
2022-08-06T05:32:24.747Z,11.10
2022-08-06T05:34:54.068Z,11.90
2022-08-06T05:38:02.110Z,10.70
2022-08-06T05:40:12.113Z,12.00
2022-08-06T05:42:40.976Z,10.70
2022-08-06T05:45:26.357Z,11.70
2022-08-06T05:47:59.505Z,11.10
2022-08-06T05:50:36.189Z,10.70
2022-08-06T05:53:20.633Z,10.80
2022-08-06T05:56:38.430Z,10.70
2022-08-06T05:59:38.173Z,11.60
2022-08-06T06:02:28.474Z,10.80
2022-08-06T06:06:04.769Z,13.50
2022-08-06T06:08:08.464Z,11.40
2022-08-06T06:10:43.733Z,39.50
2022-08-06T06:13:39.674Z,13.60
2022-08-06T06:16:47.528Z,13.30
2022-08-06T06:19:38.932Z,11.20
2022-08-06T06:22:37.250Z,10.30
2022-08-06T06:25:08.700Z,10.80
2022-08-06T06:28:04.649Z,10.10
2022-08-06T06:32:04.326Z,10.10
2022-08-06T06:35:33.852Z,10.20
2022-08-06T06:38:36.230Z,10.20
2022-08-06T06:41:24.225Z,10.20
2022-08-06T06:45:04.650Z,10.40
2022-08-06T06:47:59.233Z,9.70
2022-08-06T06:50:46.544Z,10.40
2022-08-06T06:53:19.432Z,10.40
2022-08-06T06:56:02.686Z,10.20
2022-08-06T06:59:00.224Z,9.40
2022-08-06T07:01:33.251Z,9.80
2022-08-06T07:04:09.674Z,9.90
2022-08-06T07:06:44.353Z,9.40
2022-08-06T07:09:41.314Z,9.60
2022-08-06T07:12:20.034Z,10.40
2022-08-06T07:15:00.673Z,10.10
2022-08-06T07:17:46.244Z,9.50
2022-08-06T07:20:30.298Z,10.00
2022-08-06T07:24:07.213Z,9.50
2022-08-06T07:26:51.081Z,8.50
2022-08-06T07:29:49.624Z,8.80
2022-08-06T07:32:32.610Z,8.90
2022-08-06T07:35:12.678Z,8.70
2022-08-06T07:37:59.371Z,8.80
2022-08-06T07:40:46.177Z,8.60
2022-08-06T07:43:33.051Z,8.80
2022-08-06T07:46:10.198Z,8.90
2022-08-06T07:49:17.908Z,9.10
2022-08-06T07:51:49.359Z,8.90
2022-08-06T07:54:33.989Z,8.10
2022-08-06T07:57:53.470Z,9.70
2022-08-06T08:00:27.436Z,8.40
2022-08-06T08:03:43.145Z,8.60
2022-08-06T08:07:18.399Z,8.50
2022-08-06T08:10:02.705Z,7.60
2022-08-06T08:12:37.590Z,12.50
2022-08-06T08:15:17.842Z,7.50
2022-08-06T08:18:35.584Z,7.50
2022-08-06T08:21:05.020Z,7.80
2022-08-06T08:23:38.986Z,8.20
2022-08-06T08:26:13.855Z,8.20
2022-08-06T08:28:42.638Z,7.50
2022-08-06T08:31:21.047Z,7.70
2022-08-06T08:34:43.889Z,7.80
2022-08-06T08:37:23.921Z,7.30
2022-08-06T08:39:54.906Z,7.30
2022-08-06T08:42:38.301Z,7.10
2022-08-06T08:45:13.129Z,8.10
2022-08-06T08:47:53.749Z,7.70
2022-08-06T08:50:31.356Z,7.70
2022-08-06T08:54:19.535Z,7.90
2022-08-06T08:57:07.337Z,8.10
2022-08-06T09:00:26.291Z,8.00
2022-08-06T09:02:57.228Z,7.60
2022-08-06T09:05:27.136Z,7.70
2022-08-06T09:08:04.478Z,7.70
2022-08-06T09:10:36.459Z,7.70
2022-08-06T09:13:22.875Z,7.90
2022-08-06T09:15:57.334Z,8.40
2022-08-06T09:18:59.544Z,7.30
2022-08-06T09:21:34.242Z,7.70
2022-08-06T09:24:05.671Z,7.90
2022-08-06T09:26:52.741Z,7.40
2022-08-06T09:29:31.714Z,7.10
2022-08-06T09:32:15.345Z,11.10
2022-08-06T09:34:46.643Z,7.80
2022-08-06T09:37:46.936Z,8.60
2022-08-06T09:40:21.287Z,8.40
2022-08-06T09:42:52.030Z,9.10
2022-08-06T09:45:43.225Z,7.20
2022-08-06T09:48:17.819Z,6.90
2022-08-06T09:50:51.545Z,7.20
2022-08-06T09:53:22.945Z,7.50
2022-08-06T09:55:57.577Z,7.70
2022-08-06T10:04:05.283Z,6.80
2022-08-06T10:06:22.259Z,7.40
2022-08-06T10:09:11.998Z,7.10
2022-08-06T10:12:00.663Z,7.00
2022-08-06T10:14:34.886Z,6.90
2022-08-06T10:17:21.668Z,7.00
2022-08-06T10:20:12.357Z,7.90
2022-08-06T10:22:58.825Z,7.30
2022-08-06T10:25:31.024Z,7.00
2022-08-06T10:28:16.011Z,7.20
2022-08-06T10:30:46.440Z,7.00
2022-08-06T10:33:22.743Z,7.00
2022-08-06T10:36:10.223Z,7.70
2022-08-06T10:38:52.915Z,7.20
2022-08-06T10:41:59.079Z,7.00
2022-08-06T10:44:53.882Z,6.60
2022-08-06T10:49:00.539Z,7.10
2022-08-06T10:50:30.394Z,6.90
2022-08-06T10:53:06.528Z,7.80
2022-08-06T10:55:44.235Z,7.30
2022-08-06T10:58:14.980Z,6.80
2022-08-06T11:00:53.098Z,7.30
2022-08-06T11:03:39.534Z,7.50
2022-08-06T11:06:35.892Z,7.10
2022-08-06T11:09:59.799Z,6.80
2022-08-06T11:12:47.893Z,6.90
2022-08-06T11:15:22.626Z,6.70
2022-08-06T11:17:55.902Z,6.90
2022-08-06T11:21:01.518Z,7.40
2022-08-06T11:23:58.937Z,7.60
2022-08-06T11:26:44.438Z,7.00
2022-08-06T11:32:50.978Z,6.60
2022-08-06T11:35:36.232Z,7.10
2022-08-06T11:38:55.475Z,7.10
2022-08-06T11:41:51.618Z,6.70
2022-08-06T11:44:21.643Z,6.90
2022-08-06T11:47:30.782Z,6.80
2022-08-06T11:50:47.063Z,7.00
2022-08-06T11:53:52.191Z,7.10
2022-08-06T11:56:25.457Z,7.20
2022-08-06T11:59:17.207Z,6.40
2022-08-06T12:01:49.252Z,6.80
2022-08-06T12:04:58.957Z,7.00
2022-08-06T12:07:33.588Z,7.10
2022-08-06T12:10:13.096Z,6.50
2022-08-06T12:13:42.883Z,7.20
2022-08-06T12:16:39.029Z,8.00
2022-08-06T12:19:14.785Z,7.70
2022-08-06T12:21:49.206Z,7.40
2022-08-06T12:24:25.233Z,8.10
2022-08-06T12:26:55.110Z,6.80
2022-08-06T12:29:41.604Z,8.30
2022-08-06T12:32:29.131Z,7.00
2022-08-06T12:35:04.625Z,6.80
2022-08-06T12:42:53.241Z,5.60
2022-08-06T12:46:04.656Z,6.50
2022-08-06T12:48:12.096Z,6.60
2022-08-06T12:50:43.727Z,6.50
2022-08-06T12:53:20.718Z,7.20
2022-08-06T12:55:56.704Z,6.40
2022-08-06T12:58:45.484Z,6.50
2022-08-06T13:02:10.902Z,6.10
2022-08-06T13:04:16.345Z,6.40
2022-08-06T13:06:48.859Z,6.40
2022-08-06T13:09:21.552Z,6.20
2022-08-06T13:11:51.493Z,6.30
2022-08-06T13:15:46.300Z,6.30
2022-08-06T13:18:41.795Z,6.20
2022-08-06T13:21:33.740Z,6.20
2022-08-06T13:24:30.819Z,6.20
2022-08-06T13:27:07.998Z,6.70
2022-08-06T13:30:32.299Z,6.10
2022-08-06T13:32:33.528Z,5.70
2022-08-06T13:35:17.858Z,6.30
2022-08-06T13:38:42.154Z,6.70
2022-08-06T13:42:15.418Z,5.70
2022-08-06T13:44:47.262Z,5.90
2022-08-06T13:47:38.188Z,6.10
2022-08-06T13:50:20.786Z,7.10
2022-08-06T13:53:00.774Z,6.60
2022-08-06T13:56:03.684Z,6.00
2022-08-06T14:01:02.105Z,6.60
2022-08-06T14:03:38.274Z,6.80
2022-08-06T14:06:10.627Z,6.80
2022-08-06T14:09:03.844Z,6.80
2022-08-06T14:13:02.976Z,6.40
2022-08-06T14:15:42.265Z,7.10
2022-08-06T14:18:17.064Z,6.50
2022-08-06T14:20:47.032Z,7.10
2022-08-06T14:23:16.081Z,7.30
2022-08-06T14:25:59.816Z,6.80
2022-08-06T14:28:32.376Z,7.20
2022-08-06T14:31:01.289Z,7.10
2022-08-06T14:33:47.882Z,6.70
2022-08-06T14:37:14.514Z,7.10
2022-08-06T14:41:01.366Z,6.70
2022-08-06T14:43:56.638Z,6.50
2022-08-06T14:46:30.611Z,6.50
2022-08-06T14:49:05.736Z,7.20
2022-08-06T14:52:19.413Z,6.50
2022-08-06T14:55:10.235Z,6.70
2022-08-06T14:58:11.405Z,6.70
2022-08-06T15:00:40.452Z,6.90
2022-08-06T15:03:13.474Z,6.40
2022-08-06T15:06:04.265Z,7.10
2022-08-06T15:08:35.863Z,7.00
2022-08-06T15:11:17.940Z,7.40
2022-08-06T15:13:51.646Z,7.60
2022-08-06T15:16:47.594Z,7.40
2022-08-06T15:19:30.271Z,7.10
2022-08-06T15:22:01.328Z,7.20
2022-08-06T15:24:35.736Z,6.80
2022-08-06T15:27:09.217Z,6.80
2022-08-06T15:29:38.413Z,6.30
2022-08-06T15:32:17.753Z,6.80
2022-08-06T15:36:08.490Z,6.80
2022-08-06T15:38:41.062Z,7.10
2022-08-06T15:41:11.313Z,7.00
2022-08-06T15:43:51.414Z,7.50
2022-08-06T15:48:28.625Z,5.90
2022-08-06T15:51:30.008Z,7.20
2022-08-06T15:53:57.728Z,7.80
2022-08-06T15:57:06.761Z,7.40
2022-08-06T16:01:55.388Z,7.40
2022-08-06T16:05:32.359Z,6.90
2022-08-06T16:08:32.982Z,7.30
2022-08-06T16:11:47.986Z,7.30
2022-08-06T16:14:36.763Z,7.30
2022-08-06T16:17:09.733Z,7.00
2022-08-06T16:19:49.073Z,6.80
2022-08-06T16:22:19.461Z,6.70
2022-08-06T16:24:49.183Z,6.80
2022-08-06T16:27:20.823Z,6.90
2022-08-06T16:29:50.349Z,7.00
2022-08-06T16:32:59.994Z,7.70
2022-08-06T16:35:29.804Z,7.10
2022-08-06T16:38:02.266Z,7.50
2022-08-06T16:40:31.660Z,7.30
2022-08-06T16:43:00.573Z,6.90
2022-08-06T16:45:37.351Z,6.70
2022-08-06T16:48:25.656Z,6.90
2022-08-06T16:51:02.267Z,6.90
2022-08-06T16:55:27.788Z,7.00
2022-08-06T16:58:41.858Z,7.40
2022-08-06T17:02:14.230Z,6.40
2022-08-06T17:04:03.636Z,6.70
2022-08-06T17:06:37.683Z,7.00
2022-08-06T17:09:17.319Z,7.30
2022-08-06T17:18:03.612Z,7.40
2022-08-06T17:20:33.523Z,7.40
2022-08-06T17:25:54.108Z,7.50
2022-08-06T17:31:58.361Z,7.00
2022-08-06T17:34:30.731Z,7.60
2022-08-06T17:37:03.788Z,7.40
2022-08-06T17:39:51.762Z,7.40
2022-08-06T17:42:20.706Z,7.30
2022-08-06T17:45:31.286Z,7.60
2022-08-06T17:48:01.515Z,8.20
2022-08-06T17:50:42.358Z,7.90
2022-08-06T17:53:20.172Z,12.30
2022-08-06T17:56:00.019Z,8.80
2022-08-06T17:58:39.163Z,8.30
2022-08-06T18:01:43.980Z,8.40
2022-08-06T18:04:21.879Z,8.90
2022-08-06T18:06:58.396Z,8.90
2022-08-06T18:10:10.856Z,8.80
2022-08-06T18:12:52.885Z,7.70
2022-08-06T18:15:40.280Z,8.70
2022-08-06T18:18:10.622Z,8.00
2022-08-06T18:20:43.919Z,8.50
2022-08-06T18:23:20.782Z,7.80
2022-08-06T18:25:56.034Z,7.60
2022-08-06T18:29:20.481Z,7.70
2022-08-06T18:31:58.544Z,7.30
2022-08-06T18:34:30.018Z,7.90
2022-08-06T18:37:05.740Z,7.70
2022-08-06T18:40:38.803Z,7.60
2022-08-06T18:43:09.623Z,7.80
2022-08-06T18:45:59.131Z,8.30
2022-08-06T18:48:29.456Z,8.10
2022-08-06T18:50:58.653Z,7.90
2022-08-06T18:54:01.526Z,8.40
2022-08-06T18:56:17.028Z,8.10
2022-08-06T18:58:46.992Z,8.20
2022-08-06T19:01:21.046Z,9.00
2022-08-06T19:03:52.439Z,8.00
2022-08-06T19:06:29.359Z,8.20
2022-08-06T19:08:59.152Z,8.10
2022-08-06T19:11:38.876Z,8.00
2022-08-06T19:14:19.654Z,8.10
2022-08-06T19:19:46.143Z,7.70
2022-08-06T19:22:18.431Z,8.10
2022-08-06T19:24:57.189Z,8.10
2022-08-06T19:28:31.436Z,7.70
2022-08-06T19:30:38.791Z,8.00
2022-08-06T19:33:16.532Z,7.80
2022-08-06T19:36:07.346Z,8.30
2022-08-06T19:38:35.688Z,7.90
2022-08-06T19:41:06.902Z,7.50
2022-08-06T19:44:27.350Z,8.20
2022-08-06T19:46:29.252Z,7.80
2022-08-06T19:49:00.778Z,7.70
2022-08-06T19:52:04.027Z,8.50
2022-08-06T19:54:26.138Z,7.70
2022-08-06T19:57:08.348Z,8.10
2022-08-06T20:00:51.855Z,7.80
2022-08-06T20:02:28.788Z,8.00
2022-08-06T20:04:59.260Z,7.60
2022-08-06T20:08:40.374Z,7.70
2022-08-06T20:12:02.307Z,7.80
2022-08-06T20:14:03.129Z,7.40
2022-08-06T20:16:31.957Z,7.90
2022-08-06T20:19:00.650Z,8.00
2022-08-06T20:21:43.231Z,7.70
2022-08-06T20:24:15.348Z,8.00
2022-08-06T20:26:59.180Z,7.70
2022-08-06T20:29:34.598Z,7.40
2022-08-06T20:32:18.814Z,7.70
2022-08-06T20:34:51.900Z,8.10
2022-08-06T20:37:20.575Z,8.10
2022-08-06T20:39:50.797Z,8.50
2022-08-06T20:42:20.199Z,8.10
2022-08-06T20:44:51.771Z,8.60
2022-08-06T20:50:12.086Z,8.40
2022-08-06T20:52:41.497Z,8.80
2022-08-06T20:55:14.452Z,8.70
2022-08-06T20:57:47.761Z,9.00
2022-08-06T21:00:27.880Z,8.80
2022-08-06T21:03:27.848Z,8.80
2022-08-06T21:05:47.163Z,9.20
2022-08-06T21:08:27.195Z,9.30
2022-08-06T21:11:00.580Z,8.80
2022-08-06T21:13:59.611Z,9.30
2022-08-06T21:17:01.209Z,8.50
2022-08-06T21:19:40.940Z,9.00
2022-08-06T21:22:10.950Z,9.30
2022-08-06T21:24:39.639Z,9.50
2022-08-06T21:27:48.739Z,9.70
2022-08-06T21:30:36.959Z,9.10
2022-08-06T21:33:06.334Z,9.70
2022-08-06T21:35:45.742Z,9.20
2022-08-06T21:38:24.753Z,9.70
2022-08-06T21:40:56.626Z,9.00
2022-08-06T21:43:29.276Z,9.30
2022-08-06T21:46:27.237Z,9.80
2022-08-06T21:48:58.202Z,9.60
2022-08-06T21:52:28.168Z,10.50
2022-08-06T21:56:38.750Z,10.00
2022-08-06T21:58:03.910Z,9.50
2022-08-06T22:00:42.233Z,9.70
2022-08-06T22:04:35.273Z,9.50
2022-08-06T22:09:58.092Z,9.90
2022-08-06T22:12:36.916Z,9.80
2022-08-06T22:15:12.303Z,9.30
2022-08-06T22:18:02.048Z,9.30
2022-08-06T22:20:31.038Z,9.60
2022-08-06T22:23:02.079Z,9.60
2022-08-06T22:25:31.210Z,9.70
2022-08-06T22:28:03.229Z,9.60
2022-08-06T22:30:33.200Z,9.80
2022-08-06T22:33:12.286Z,9.90
2022-08-06T22:35:57.476Z,9.80
2022-08-06T22:38:32.246Z,9.90
2022-08-06T22:41:01.360Z,9.70
2022-08-06T22:43:57.007Z,9.20
2022-08-06T22:46:18.753Z,9.90
2022-08-06T22:48:50.081Z,10.40
2022-08-06T22:51:34.297Z,10.30
2022-08-06T22:54:28.988Z,9.90
2022-08-06T22:57:03.128Z,10.10
2022-08-06T23:00:10.934Z,10.20
2022-08-06T23:02:24.738Z,9.90
2022-08-06T23:04:54.997Z,10.10
2022-08-06T23:07:26.227Z,9.60
2022-08-06T23:10:04.448Z,9.40
2022-08-06T23:12:36.716Z,10.70
2022-08-06T23:15:30.555Z,10.50
2022-08-06T23:18:00.408Z,10.50
2022-08-06T23:20:32.916Z,9.90
2022-08-06T23:23:04.767Z,9.20
2022-08-06T23:26:01.136Z,10.50
2022-08-06T23:28:23.299Z,9.90
2022-08-06T23:30:57.093Z,9.60
2022-08-06T23:33:38.764Z,9.60
2022-08-06T23:36:16.133Z,11.30
2022-08-06T23:38:44.811Z,10.70
2022-08-06T23:41:24.449Z,10.20
2022-08-06T23:44:18.675Z,10.40
2022-08-06T23:46:51.094Z,11.40
2022-08-06T23:49:27.513Z,10.30
2022-08-06T23:52:03.447Z,10.90
2022-08-06T23:54:33.343Z,10.50
2022-08-06T23:57:03.954Z,9.80
2022-08-06T23:59:45.344Z,10.70
